sensor_id;sensor_type;location;lat;lon;timestamp;P1;durP1;ratioP1;P2;durP2;ratioP2
77738;SDS011;66904;59.926;30.404;2023-07-29T00:01:52;0.98;;;0.40;;
77738;SDS011;66904;59.926;30.404;2023-07-29T00:06:54;1.02;;;0.40;;
77738;SDS011;66904;59.926;30.404;2023-07-29T00:11:55;0.65;;;0.57;;
77738;SDS011;66904;59.926;30.404;2023-07-29T00:16:55;1.77;;;0.82;;
77738;SDS011;66904;59.926;30.404;2023-07-29T00:21:56;0.45;;;0.30;;
77738;SDS011;66904;59.926;30.404;2023-07-29T00:26:56;0.80;;;0.40;;
77738;SDS011;66904;59.926;30.404;2023-07-29T00:31:57;0.88;;;0.50;;
77738;SDS011;66904;59.926;30.404;2023-07-29T00:36:57;1.05;;;0.73;;
77738;SDS011;66904;59.926;30.404;2023-07-29T00:41:58;1.13;;;0.63;;
77738;SDS011;66904;59.926;30.404;2023-07-29T00:46:59;3.22;;;1.00;;
77738;SDS011;66904;59.926;30.404;2023-07-29T00:52:02;1.23;;;0.90;;
77738;SDS011;66904;59.926;30.404;2023-07-29T00:57:03;0.93;;;0.57;;
77738;SDS011;66904;59.926;30.404;2023-07-29T01:02:04;1.40;;;0.60;;
77738;SDS011;66904;59.926;30.404;2023-07-29T01:07:14;1.10;;;0.60;;
77738;SDS011;66904;59.926;30.404;2023-07-29T01:12:27;1.58;;;0.85;;
77738;SDS011;66904;59.926;30.404;2023-07-29T01:17:52;1.13;;;0.52;;
77738;SDS011;66904;59.926;30.404;2023-07-29T01:22:56;0.88;;;0.63;;
77738;SDS011;66904;59.926;30.404;2023-07-29T01:27:56;1.70;;;0.70;;
77738;SDS011;66904;59.926;30.404;2023-07-29T01:32:59;1.15;;;0.63;;
77738;SDS011;66904;59.926;30.404;2023-07-29T01:38:35;1.10;;;0.73;;
77738;SDS011;66904;59.926;30.404;2023-07-29T01:43:38;1.20;;;0.70;;
77738;SDS011;66904;59.926;30.404;2023-07-29T01:48:43;1.30;;;0.77;;
77738;SDS011;66904;59.926;30.404;2023-07-29T01:53:44;0.95;;;0.55;;
77738;SDS011;66904;59.926;30.404;2023-07-29T01:58:44;0.98;;;0.63;;
77738;SDS011;66904;59.926;30.404;2023-07-29T02:03:45;0.95;;;0.60;;
77738;SDS011;66904;59.926;30.404;2023-07-29T02:08:45;1.02;;;0.55;;
77738;SDS011;66904;59.926;30.404;2023-07-29T02:13:46;1.00;;;0.40;;
77738;SDS011;66904;59.926;30.404;2023-07-29T02:18:46;1.67;;;0.70;;
77738;SDS011;66904;59.926;30.404;2023-07-29T02:23:47;1.40;;;0.43;;
77738;SDS011;66904;59.926;30.404;2023-07-29T02:28:47;1.20;;;0.60;;
77738;SDS011;66904;59.926;30.404;2023-07-29T02:33:48;0.90;;;0.50;;
77738;SDS011;66904;59.926;30.404;2023-07-29T02:38:49;1.08;;;0.60;;
77738;SDS011;66904;59.926;30.404;2023-07-29T02:43:50;0.75;;;0.50;;
77738;SDS011;66904;59.926;30.404;2023-07-29T02:48:51;2.08;;;0.75;;
77738;SDS011;66904;59.926;30.404;2023-07-29T02:53:51;2.08;;;1.52;;
77738;SDS011;66904;59.926;30.404;2023-07-29T02:58:52;1.20;;;0.50;;
77738;SDS011;66904;59.926;30.404;2023-07-29T03:03:53;1.60;;;0.68;;
77738;SDS011;66904;59.926;30.404;2023-07-29T03:08:53;0.82;;;0.50;;
77738;SDS011;66904;59.926;30.404;2023-07-29T03:13:54;1.13;;;1.02;;
77738;SDS011;66904;59.926;30.404;2023-07-29T03:18:54;1.05;;;0.55;;
77738;SDS011;66904;59.926;30.404;2023-07-29T03:23:55;0.70;;;0.50;;
77738;SDS011;66904;59.926;30.404;2023-07-29T03:28:55;1.38;;;0.73;;
77738;SDS011;66904;59.926;30.404;2023-07-29T03:33:56;0.90;;;0.50;;
77738;SDS011;66904;59.926;30.404;2023-07-29T03:38:56;1.40;;;0.73;;
77738;SDS011;66904;59.926;30.404;2023-07-29T03:43:58;1.38;;;0.85;;
77738;SDS011;66904;59.926;30.404;2023-07-29T03:48:59;1.17;;;0.80;;
77738;SDS011;66904;59.926;30.404;2023-07-29T03:53:59;1.35;;;1.02;;
77738;SDS011;66904;59.926;30.404;2023-07-29T03:59:03;1.60;;;0.70;;
77738;SDS011;66904;59.926;30.404;2023-07-29T04:04:05;3.13;;;0.85;;
77738;SDS011;66904;59.926;30.404;2023-07-29T04:09:06;1.25;;;0.75;;
77738;SDS011;66904;59.926;30.404;2023-07-29T04:14:07;1.20;;;0.70;;
77738;SDS011;66904;59.926;30.404;2023-07-29T04:19:07;1.75;;;1.00;;
77738;SDS011;66904;59.926;30.404;2023-07-29T04:24:08;1.48;;;0.75;;
77738;SDS011;66904;59.926;30.404;2023-07-29T04:29:09;1.10;;;0.63;;
77738;SDS011;66904;59.926;30.404;2023-07-29T04:34:09;1.35;;;0.75;;
77738;SDS011;66904;59.926;30.404;2023-07-29T04:39:10;0.95;;;0.57;;
77738;SDS011;66904;59.926;30.404;2023-07-29T04:44:11;1.33;;;0.70;;
77738;SDS011;66904;59.926;30.404;2023-07-29T04:49:11;1.48;;;0.90;;
77738;SDS011;66904;59.926;30.404;2023-07-29T04:54:12;1.25;;;0.73;;
77738;SDS011;66904;59.926;30.404;2023-07-29T04:59:12;1.60;;;0.82;;
77738;SDS011;66904;59.926;30.404;2023-07-29T05:04:13;0.93;;;0.60;;
77738;SDS011;66904;59.926;30.404;2023-07-29T05:09:18;1.08;;;0.60;;
77738;SDS011;66904;59.926;30.404;2023-07-29T05:14:20;1.27;;;0.75;;
77738;SDS011;66904;59.926;30.404;2023-07-29T05:19:20;0.90;;;0.60;;
77738;SDS011;66904;59.926;30.404;2023-07-29T05:24:21;0.90;;;0.60;;
77738;SDS011;66904;59.926;30.404;2023-07-29T05:29:21;1.20;;;0.65;;
77738;SDS011;66904;59.926;30.404;2023-07-29T05:34:22;3.53;;;0.57;;
77738;SDS011;66904;59.926;30.404;2023-07-29T05:39:22;1.08;;;0.50;;
77738;SDS011;66904;59.926;30.404;2023-07-29T05:44:24;0.50;;;0.30;;
77738;SDS011;66904;59.926;30.404;2023-07-29T05:49:25;1.00;;;0.70;;
77738;SDS011;66904;59.926;30.404;2023-07-29T05:54:25;0.90;;;0.50;;
77738;SDS011;66904;59.926;30.404;2023-07-29T05:59:26;0.63;;;0.40;;
77738;SDS011;66904;59.926;30.404;2023-07-29T06:04:29;2.42;;;1.05;;
77738;SDS011;66904;59.926;30.404;2023-07-29T06:09:29;1.10;;;0.52;;
77738;SDS011;66904;59.926;30.404;2023-07-29T06:14:30;0.95;;;0.60;;
77738;SDS011;66904;59.926;30.404;2023-07-29T06:19:30;2.67;;;0.52;;
77738;SDS011;66904;59.926;30.404;2023-07-29T06:24:31;0.77;;;0.50;;
77738;SDS011;66904;59.926;30.404;2023-07-29T06:29:32;1.17;;;0.60;;
77738;SDS011;66904;59.926;30.404;2023-07-29T06:34:33;0.73;;;0.40;;
77738;SDS011;66904;59.926;30.404;2023-07-29T06:39:34;0.68;;;0.40;;
77738;SDS011;66904;59.926;30.404;2023-07-29T06:44:34;0.88;;;0.50;;
77738;SDS011;66904;59.926;30.404;2023-07-29T06:49:35;0.73;;;0.40;;
77738;SDS011;66904;59.926;30.404;2023-07-29T06:54:35;1.08;;;0.40;;
77738;SDS011;66904;59.926;30.404;2023-07-29T06:59:36;0.60;;;0.30;;
77738;SDS011;66904;59.926;30.404;2023-07-29T07:04:37;1.17;;;0.40;;
77738;SDS011;66904;59.926;30.404;2023-07-29T07:09:37;0.55;;;0.30;;
77738;SDS011;66904;59.926;30.404;2023-07-29T07:14:38;0.82;;;0.40;;
77738;SDS011;66904;59.926;30.404;2023-07-29T07:19:39;0.43;;;0.25;;
77738;SDS011;66904;59.926;30.404;2023-07-29T07:24:39;0.68;;;0.50;;
77738;SDS011;66904;59.926;30.404;2023-07-29T07:29:40;1.25;;;0.70;;
77738;SDS011;66904;59.926;30.404;2023-07-29T07:34:41;0.75;;;0.40;;
77738;SDS011;66904;59.926;30.404;2023-07-29T07:39:41;1.15;;;0.68;;
77738;SDS011;66904;59.926;30.404;2023-07-29T07:44:42;0.68;;;0.40;;
77738;SDS011;66904;59.926;30.404;2023-07-29T07:49:42;2.40;;;0.28;;
77738;SDS011;66904;59.926;30.404;2023-07-29T07:54:43;7.65;;;1.00;;
77738;SDS011;66904;59.926;30.404;2023-07-29T07:59:43;3.65;;;1.13;;
77738;SDS011;66904;59.926;30.404;2023-07-29T08:04:44;1.58;;;0.40;;
77738;SDS011;66904;59.926;30.404;2023-07-29T08:09:44;5.97;;;2.70;;
77738;SDS011;66904;59.926;30.404;2023-07-29T08:14:45;3.70;;;1.80;;
77738;SDS011;66904;59.926;30.404;2023-07-29T08:19:46;5.18;;;1.92;;
77738;SDS011;66904;59.926;30.404;2023-07-29T08:24:46;2.42;;;1.60;;
77738;SDS011;66904;59.926;30.404;2023-07-29T08:29:47;3.15;;;1.42;;
77738;SDS011;66904;59.926;30.404;2023-07-29T08:34:47;3.33;;;1.40;;
77738;SDS011;66904;59.926;30.404;2023-07-29T08:39:48;2.67;;;1.27;;
77738;SDS011;66904;59.926;30.404;2023-07-29T08:44:49;1.63;;;0.93;;
77738;SDS011;66904;59.926;30.404;2023-07-29T08:49:51;1.83;;;1.00;;
77738;SDS011;66904;59.926;30.404;2023-07-29T08:54:53;1.40;;;0.70;;
77738;SDS011;66904;59.926;30.404;2023-07-29T08:59:54;2.97;;;1.30;;
77738;SDS011;66904;59.926;30.404;2023-07-29T09:04:56;4.75;;;0.88;;
77738;SDS011;66904;59.926;30.404;2023-07-29T09:09:57;5.38;;;1.05;;
77738;SDS011;66904;59.926;30.404;2023-07-29T09:14:57;1.25;;;0.50;;
77738;SDS011;66904;59.926;30.404;2023-07-29T09:19:58;2.08;;;0.95;;
77738;SDS011;66904;59.926;30.404;2023-07-29T09:24:58;1.70;;;0.82;;
77738;SDS011;66904;59.926;30.404;2023-07-29T09:29:59;5.65;;;0.60;;
77738;SDS011;66904;59.926;30.404;2023-07-29T09:35:00;1.45;;;0.65;;
77738;SDS011;66904;59.926;30.404;2023-07-29T09:40:00;2.67;;;0.82;;
77738;SDS011;66904;59.926;30.404;2023-07-29T09:45:01;2.00;;;1.13;;
77738;SDS011;66904;59.926;30.404;2023-07-29T09:50:01;3.28;;;0.70;;
77738;SDS011;66904;59.926;30.404;2023-07-29T09:55:02;0.82;;;0.52;;
77738;SDS011;66904;59.926;30.404;2023-07-29T10:00:03;1.10;;;0.75;;
77738;SDS011;66904;59.926;30.404;2023-07-29T10:05:08;0.90;;;0.60;;
77738;SDS011;66904;59.926;30.404;2023-07-29T10:10:09;0.65;;;0.47;;
77738;SDS011;66904;59.926;30.404;2023-07-29T10:15:11;1.48;;;0.82;;
77738;SDS011;66904;59.926;30.404;2023-07-29T10:20:11;1.27;;;0.70;;
77738;SDS011;66904;59.926;30.404;2023-07-29T10:25:16;0.93;;;0.55;;
77738;SDS011;66904;59.926;30.404;2023-07-29T10:30:18;2.15;;;0.80;;
77738;SDS011;66904;59.926;30.404;2023-07-29T10:35:18;0.95;;;0.63;;
77738;SDS011;66904;59.926;30.404;2023-07-29T10:40:19;1.23;;;0.65;;
77738;SDS011;66904;59.926;30.404;2023-07-29T10:45:20;3.72;;;1.00;;
77738;SDS011;66904;59.926;30.404;2023-07-29T10:50:21;1.20;;;0.90;;
77738;SDS011;66904;59.926;30.404;2023-07-29T10:55:27;4.85;;;0.85;;
77738;SDS011;66904;59.926;30.404;2023-07-29T11:00:30;2.70;;;0.73;;
77738;SDS011;66904;59.926;30.404;2023-07-29T11:05:45;29.55;;;15.48;;
77738;SDS011;66904;59.926;30.404;2023-07-29T11:10:59;14.07;;;6.82;;
77738;SDS011;66904;59.926;30.404;2023-07-29T11:16:03;24.20;;;18.10;;
77738;SDS011;66904;59.926;30.404;2023-07-29T11:21:05;23.05;;;12.90;;
77738;SDS011;66904;59.926;30.404;2023-07-29T11:26:05;30.55;;;20.73;;
77738;SDS011;66904;59.926;30.404;2023-07-29T11:31:07;21.50;;;15.35;;
77738;SDS011;66904;59.926;30.404;2023-07-29T11:36:16;12.90;;;7.68;;
77738;SDS011;66904;59.926;30.404;2023-07-29T11:41:19;8.48;;;5.65;;
77738;SDS011;66904;59.926;30.404;2023-07-29T11:46:21;6.15;;;3.08;;
77738;SDS011;66904;59.926;30.404;2023-07-29T11:51:22;4.78;;;2.42;;
77738;SDS011;66904;59.926;30.404;2023-07-29T11:56:23;3.85;;;2.03;;
77738;SDS011;66904;59.926;30.404;2023-07-29T12:01:24;3.20;;;1.92;;
77738;SDS011;66904;59.926;30.404;2023-07-29T12:06:25;2.75;;;1.50;;
77738;SDS011;66904;59.926;30.404;2023-07-29T12:11:26;2.40;;;1.23;;
77738;SDS011;66904;59.926;30.404;2023-07-29T12:16:27;2.45;;;1.25;;
77738;SDS011;66904;59.926;30.404;2023-07-29T12:21:35;1.95;;;1.20;;
77738;SDS011;66904;59.926;30.404;2023-07-29T12:26:36;1.02;;;0.80;;
77738;SDS011;66904;59.926;30.404;2023-07-29T12:31:37;2.30;;;1.38;;
77738;SDS011;66904;59.926;30.404;2023-07-29T12:36:47;2.28;;;1.17;;
77738;SDS011;66904;59.926;30.404;2023-07-29T12:41:49;3.25;;;1.42;;
77738;SDS011;66904;59.926;30.404;2023-07-29T12:46:52;1.50;;;0.70;;
77738;SDS011;66904;59.926;30.404;2023-07-29T12:51:52;2.72;;;1.00;;
77738;SDS011;66904;59.926;30.404;2023-07-29T12:56:53;1.80;;;1.10;;
77738;SDS011;66904;59.926;30.404;2023-07-29T13:01:53;1.45;;;0.75;;
77738;SDS011;66904;59.926;30.404;2023-07-29T13:06:54;2.00;;;0.82;;
77738;SDS011;66904;59.926;30.404;2023-07-29T13:11:56;1.38;;;0.80;;
77738;SDS011;66904;59.926;30.404;2023-07-29T13:16:57;1.25;;;0.80;;
77738;SDS011;66904;59.926;30.404;2023-07-29T13:21:57;1.83;;;0.85;;
77738;SDS011;66904;59.926;30.404;2023-07-29T13:26:58;1.77;;;0.82;;
77738;SDS011;66904;59.926;30.404;2023-07-29T13:31:58;2.22;;;0.70;;
77738;SDS011;66904;59.926;30.404;2023-07-29T13:36:59;1.00;;;0.55;;
77738;SDS011;66904;59.926;30.404;2023-07-29T13:41:59;5.55;;;1.83;;
77738;SDS011;66904;59.926;30.404;2023-07-29T13:47:00;2.15;;;0.93;;
77738;SDS011;66904;59.926;30.404;2023-07-29T13:52:00;3.63;;;1.35;;
77738;SDS011;66904;59.926;30.404;2023-07-29T13:57:01;1.23;;;0.70;;
77738;SDS011;66904;59.926;30.404;2023-07-29T14:02:01;2.58;;;0.70;;
77738;SDS011;66904;59.926;30.404;2023-07-29T14:07:02;3.67;;;0.80;;
77738;SDS011;66904;59.926;30.404;2023-07-29T14:12:04;1.98;;;1.33;;
77738;SDS011;66904;59.926;30.404;2023-07-29T14:17:05;1.77;;;0.80;;
77738;SDS011;66904;59.926;30.404;2023-07-29T14:22:06;1.15;;;0.57;;
77738;SDS011;66904;59.926;30.404;2023-07-29T14:27:06;1.45;;;0.60;;
77738;SDS011;66904;59.926;30.404;2023-07-29T14:32:07;0.98;;;0.57;;
77738;SDS011;66904;59.926;30.404;2023-07-29T14:37:07;1.08;;;0.63;;
77738;SDS011;66904;59.926;30.404;2023-07-29T14:42:08;1.20;;;0.47;;
77738;SDS011;66904;59.926;30.404;2023-07-29T14:47:08;1.42;;;0.63;;
77738;SDS011;66904;59.926;30.404;2023-07-29T14:52:09;3.33;;;0.65;;
77738;SDS011;66904;59.926;30.404;2023-07-29T14:57:10;1.25;;;0.60;;
77738;SDS011;66904;59.926;30.404;2023-07-29T15:02:11;1.13;;;0.60;;
77738;SDS011;66904;59.926;30.404;2023-07-29T15:07:11;1.45;;;0.73;;
77738;SDS011;66904;59.926;30.404;2023-07-29T15:12:12;1.60;;;0.73;;
77738;SDS011;66904;59.926;30.404;2023-07-29T15:17:12;1.30;;;0.50;;
77738;SDS011;66904;59.926;30.404;2023-07-29T15:22:13;1.35;;;0.65;;
77738;SDS011;66904;59.926;30.404;2023-07-29T15:27:13;1.45;;;0.90;;
77738;SDS011;66904;59.926;30.404;2023-07-29T15:32:14;1.35;;;0.93;;
77738;SDS011;66904;59.926;30.404;2023-07-29T15:37:15;0.70;;;0.63;;
77738;SDS011;66904;59.926;30.404;2023-07-29T15:42:15;0.90;;;0.43;;
77738;SDS011;66904;59.926;30.404;2023-07-29T15:47:16;1.00;;;0.60;;
77738;SDS011;66904;59.926;30.404;2023-07-29T15:52:18;1.75;;;0.30;;
77738;SDS011;66904;59.926;30.404;2023-07-29T15:57:19;1.17;;;0.52;;
77738;SDS011;66904;59.926;30.404;2023-07-29T16:02:19;1.38;;;0.50;;
77738;SDS011;66904;59.926;30.404;2023-07-29T16:07:20;1.73;;;0.68;;
77738;SDS011;66904;59.926;30.404;2023-07-29T16:12:20;4.47;;;2.10;;
77738;SDS011;66904;59.926;30.404;2023-07-29T16:17:21;11.07;;;5.03;;
77738;SDS011;66904;59.926;30.404;2023-07-29T16:22:21;6.03;;;2.72;;
77738;SDS011;66904;59.926;30.404;2023-07-29T16:27:22;4.50;;;1.95;;
77738;SDS011;66904;59.926;30.404;2023-07-29T16:32:23;6.28;;;2.13;;
77738;SDS011;66904;59.926;30.404;2023-07-29T16:37:23;5.00;;;2.08;;
77738;SDS011;66904;59.926;30.404;2023-07-29T16:42:24;5.97;;;2.28;;
77738;SDS011;66904;59.926;30.404;2023-07-29T16:47:25;4.43;;;1.67;;
77738;SDS011;66904;59.926;30.404;2023-07-29T16:52:26;2.60;;;1.55;;
77738;SDS011;66904;59.926;30.404;2023-07-29T16:57:27;2.28;;;1.02;;
77738;SDS011;66904;59.926;30.404;2023-07-29T17:02:27;1.80;;;0.95;;
77738;SDS011;66904;59.926;30.404;2023-07-29T17:07:28;1.85;;;0.70;;
77738;SDS011;66904;59.926;30.404;2023-07-29T17:12:29;1.50;;;1.02;;
77738;SDS011;66904;59.926;30.404;2023-07-29T17:17:29;2.15;;;1.10;;
77738;SDS011;66904;59.926;30.404;2023-07-29T17:22:30;2.60;;;0.73;;
77738;SDS011;66904;59.926;30.404;2023-07-29T17:27:35;3.65;;;1.77;;
77738;SDS011;66904;59.926;30.404;2023-07-29T17:32:35;1.15;;;0.60;;
77738;SDS011;66904;59.926;30.404;2023-07-29T17:37:36;1.33;;;0.75;;
77738;SDS011;66904;59.926;30.404;2023-07-29T17:42:36;2.30;;;0.43;;
77738;SDS011;66904;59.926;30.404;2023-07-29T17:47:37;1.23;;;0.70;;
77738;SDS011;66904;59.926;30.404;2023-07-29T17:52:38;1.73;;;0.63;;
77738;SDS011;66904;59.926;30.404;2023-07-29T17:57:38;1.00;;;0.50;;
77738;SDS011;66904;59.926;30.404;2023-07-29T18:02:39;1.10;;;0.60;;
77738;SDS011;66904;59.926;30.404;2023-07-29T18:07:40;1.42;;;0.70;;
77738;SDS011;66904;59.926;30.404;2023-07-29T18:12:40;0.93;;;0.50;;
77738;SDS011;66904;59.926;30.404;2023-07-29T18:17:44;0.90;;;0.55;;
77738;SDS011;66904;59.926;30.404;2023-07-29T18:22:44;3.42;;;0.65;;
77738;SDS011;66904;59.926;30.404;2023-07-29T18:27:48;1.42;;;1.10;;
77738;SDS011;66904;59.926;30.404;2023-07-29T18:32:48;1.00;;;0.70;;
77738;SDS011;66904;59.926;30.404;2023-07-29T18:37:49;0.90;;;0.43;;
77738;SDS011;66904;59.926;30.404;2023-07-29T18:42:58;2.08;;;1.50;;
77738;SDS011;66904;59.926;30.404;2023-07-29T18:47:58;1.73;;;0.80;;
77738;SDS011;66904;59.926;30.404;2023-07-29T18:52:59;10.07;;;3.83;;
77738;SDS011;66904;59.926;30.404;2023-07-29T18:57:59;4.50;;;1.40;;
77738;SDS011;66904;59.926;30.404;2023-07-29T19:03:00;1.45;;;0.73;;
77738;SDS011;66904;59.926;30.404;2023-07-29T19:08:00;1.52;;;0.77;;
77738;SDS011;66904;59.926;30.404;2023-07-29T19:13:01;1.75;;;0.75;;
77738;SDS011;66904;59.926;30.404;2023-07-29T19:18:03;1.77;;;0.55;;
77738;SDS011;66904;59.926;30.404;2023-07-29T19:23:03;1.63;;;0.75;;
77738;SDS011;66904;59.926;30.404;2023-07-29T19:28:04;1.63;;;0.77;;
77738;SDS011;66904;59.926;30.404;2023-07-29T19:33:04;0.63;;;0.40;;
77738;SDS011;66904;59.926;30.404;2023-07-29T19:38:05;1.05;;;0.55;;
77738;SDS011;66904;59.926;30.404;2023-07-29T19:43:05;1.33;;;0.38;;
77738;SDS011;66904;59.926;30.404;2023-07-29T19:48:06;2.25;;;0.70;;
77738;SDS011;66904;59.926;30.404;2023-07-29T19:53:07;5.22;;;0.70;;
77738;SDS011;66904;59.926;30.404;2023-07-29T19:58:07;0.93;;;0.60;;
77738;SDS011;66904;59.926;30.404;2023-07-29T20:03:08;2.78;;;0.65;;
77738;SDS011;66904;59.926;30.404;2023-07-29T20:08:08;1.48;;;0.70;;
77738;SDS011;66904;59.926;30.404;2023-07-29T20:13:09;1.70;;;0.82;;
77738;SDS011;66904;59.926;30.404;2023-07-29T20:18:09;1.27;;;0.50;;
77738;SDS011;66904;59.926;30.404;2023-07-29T20:23:10;1.40;;;0.60;;
77738;SDS011;66904;59.926;30.404;2023-07-29T20:28:11;1.98;;;0.98;;
77738;SDS011;66904;59.926;30.404;2023-07-29T20:33:13;1.42;;;0.60;;
77738;SDS011;66904;59.926;30.404;2023-07-29T20:38:13;0.95;;;0.50;;
77738;SDS011;66904;59.926;30.404;2023-07-29T20:43:14;2.08;;;0.98;;
77738;SDS011;66904;59.926;30.404;2023-07-29T20:48:14;5.78;;;0.70;;
77738;SDS011;66904;59.926;30.404;2023-07-29T20:53:15;1.60;;;0.65;;
77738;SDS011;66904;59.926;30.404;2023-07-29T20:58:17;1.42;;;0.90;;
77738;SDS011;66904;59.926;30.404;2023-07-29T21:03:18;3.28;;;0.75;;
77738;SDS011;66904;59.926;30.404;2023-07-29T21:08:18;1.70;;;0.68;;
77738;SDS011;66904;59.926;30.404;2023-07-29T21:13:19;0.93;;;0.43;;
77738;SDS011;66904;59.926;30.404;2023-07-29T21:18:20;0.55;;;0.30;;
77738;SDS011;66904;59.926;30.404;2023-07-29T21:23:21;1.40;;;1.00;;
77738;SDS011;66904;59.926;30.404;2023-07-29T21:28:22;5.93;;;0.70;;
77738;SDS011;66904;59.926;30.404;2023-07-29T21:33:23;2.00;;;0.65;;
77738;SDS011;66904;59.926;30.404;2023-07-29T21:38:23;1.35;;;0.68;;
77738;SDS011;66904;59.926;30.404;2023-07-29T21:43:24;1.77;;;0.70;;
77738;SDS011;66904;59.926;30.404;2023-07-29T21:48:25;1.73;;;0.85;;
77738;SDS011;66904;59.926;30.404;2023-07-29T21:53:25;1.23;;;0.65;;
77738;SDS011;66904;59.926;30.404;2023-07-29T21:58:26;2.22;;;1.00;;
77738;SDS011;66904;59.926;30.404;2023-07-29T22:03:26;1.08;;;0.75;;
77738;SDS011;66904;59.926;30.404;2023-07-29T22:08:27;2.00;;;0.88;;
77738;SDS011;66904;59.926;30.404;2023-07-29T22:13:28;1.25;;;0.70;;
77738;SDS011;66904;59.926;30.404;2023-07-29T22:18:29;2.58;;;0.65;;
77738;SDS011;66904;59.926;30.404;2023-07-29T22:23:30;1.67;;;0.60;;
77738;SDS011;66904;59.926;30.404;2023-07-29T22:28:30;1.95;;;1.15;;
77738;SDS011;66904;59.926;30.404;2023-07-29T22:33:34;2.67;;;0.60;;
77738;SDS011;66904;59.926;30.404;2023-07-29T22:38:35;1.25;;;0.50;;
77738;SDS011;66904;59.926;30.404;2023-07-29T22:43:35;1.02;;;0.60;;
77738;SDS011;66904;59.926;30.404;2023-07-29T22:48:36;2.10;;;0.60;;
77738;SDS011;66904;59.926;30.404;2023-07-29T22:53:36;1.30;;;0.70;;
77738;SDS011;66904;59.926;30.404;2023-07-29T22:58:37;1.25;;;0.63;;
77738;SDS011;66904;59.926;30.404;2023-07-29T23:03:37;1.20;;;0.88;;
77738;SDS011;66904;59.926;30.404;2023-07-29T23:08:38;0.60;;;0.32;;
77738;SDS011;66904;59.926;30.404;2023-07-29T23:13:38;0.55;;;0.25;;
77738;SDS011;66904;59.926;30.404;2023-07-29T23:18:41;0.77;;;0.38;;
77738;SDS011;66904;59.926;30.404;2023-07-29T23:23:41;0.65;;;0.35;;
77738;SDS011;66904;59.926;30.404;2023-07-29T23:28:43;0.60;;;0.40;;
77738;SDS011;66904;59.926;30.404;2023-07-29T23:33:44;1.77;;;0.60;;
77738;SDS011;66904;59.926;30.404;2023-07-29T23:38:44;0.50;;;0.30;;
77738;SDS011;66904;59.926;30.404;2023-07-29T23:43:45;0.95;;;0.57;;
77738;SDS011;66904;59.926;30.404;2023-07-29T23:48:45;1.27;;;0.40;;
77738;SDS011;66904;59.926;30.404;2023-07-29T23:53:46;1.50;;;0.32;;
77738;SDS011;66904;59.926;30.404;2023-07-29T23:58:47;0.80;;;0.50;;
